Tiempo atmosférico en la estación meteorológica de Guijo De Granadilla, Cáceres (393 m.)



Fecha
DESCASC
Temp. máxima en grados centígrados (hora)
DESCASC
Temp. mínima en grados centígrados (hora)
DESCASC
Temp. media en grados centígrados
DESCASC
Racha de viento máxima en m/sg (hora)
DESCASC
Velocidad máxima media en intervalos de 10 minutos(hora)
DESCASC
Precipitaciones diarias en mm
DESCASC
Precipitaciones de 00:00 a 06:00 en mm
DESCASC
Precipitaciones de 06:00 a 12:00 en mm
DESCASC
Precipitaciones de 12:00 a 18:00 en mm
DESCASC
Precipitaciones de 18:00 a 24:00 en mm
DESCASC
13-10-2019 24.2 (17:30) 16.1 (08:10) 20.2 9.44 (18:40) 6.11 (18:40) 0 0 0 0 0
12-10-2019 30.5 (17:40) 17.1 (09:00) 23.8 13.33 (17:40) 7.5 (18:30) 0 0 0 0 0
11-10-2019 29.1 (16:40) 13.2 (08:50) 21.2 10 (15:10) 5.83 (15:20) 0 0 0 0 0
10-10-2019 30 (16:10) 15.2 (00:00) 22.6 8.06 (01:10) 5.28 (01:40) 0 0 0 0 0
09-10-2019 29.8 (16:40) 18.4 (00:00) 24.1 11.39 (11:20) 6.67 (11:20) 0 0 0 0 0
08-10-2019 32.6 (16:40) 15.8 (00:00) 24.2 5.83 (02:10) 3.61 (02:20) 0 0 0 0 0
07-10-2019 33.5 (17:00) 18 (00:00) 25.8 7.78 (06:30) 5 (05:50) 0 0 0 0 0
06-10-2019 30.2 (17:40) 15.3 (00:00) 22.8 9.44 (10:40) 5.83 (10:50) 0 0 0 0 0
05-10-2019 28.8 (17:20) 13.4 (00:00) 21.1 6.39 (18:00) 3.61 (01:00) 0 0 0 0 0
04-10-2019 29 (16:50) 14.7 (00:00) 21.8 7.78 (04:30) 4.72 (04:20) 0 0 0 0 0
03-10-2019 29.4 (17:30) 12.6 (00:00) 21 6.94 (15:50) 3.61 (00:30) 0 0 0 0 0
02-10-2019 25.4 (17:00) 13.8 (00:00) 19.6 12.22 (11:30) 7.78 (11:30) 0 0 0 0 0
01-10-2019 26.2 (18:10) 13.5 (00:00) 19.9 10.28 (16:00) 5 (11:20) 0 0 0 0 0
30-09-2019 31.2 (16:40) 16.5 (00:00) 23.9 6.94 (15:00) 3.61 (05:40) 0 0 0 0 0
29-09-2019 31 (17:10) 13.5 (00:00) 22.3 5.56 (06:50) 3.33 (06:50) 0 0 0 0 0
28-09-2019 30.4 (18:00) 15.7 (00:00) 23 7.5 (03:40) 4.44 (02:30) 0 0 0 0 0
27-09-2019 30.2 (16:40) 16 (00:00) 23.1 9.17 (17:00) 4.72 (04:10) 0 0 0 0 0
26-09-2019 29.3 (18:10) 15.8 (00:00) 22.5 6.67 (03:10) 4.17 (03:10) 0 0 0 0 0
25-09-2019 26.5 (18:10) 14.1 (00:00) 20.3 8.61 (09:40) 5 (09:40) 0 0 0 0 0
24-09-2019 25.7 (18:20) 10.4 (00:00) 18.1 9.72 (18:30) 5.56 (18:20) 0 0 0 0 0
23-09-2019 25.1 (17:10) 10.7 (00:00) 17.9 5.28 (16:00) 2.78 (19:10) 0 0 0 0 0
22-09-2019 22.3 (17:30) 13.4 (00:00) 17.8 9.44 (00:10) 5.28 (00:10) 6.8 6.8 0 0 0
21-09-2019 18.7 (00:00) 16 (00:00) 17.4 10.56 (23:59) 6.11 (22:50) 16 0.4 4 3.2 8.4
20-09-2019 28.7 (14:40) 16.8 (00:00) 22.8 11.67 (16:10) 6.67 (17:50) 0.6 0 0 0.2 0.4
19-09-2019 31.5 (16:10) 16.3 (00:00) 23.9 6.94 (16:20) 3.89 (17:30) 0 0 0 0 0
18-09-2019 30.2 (18:20) 14.3 (00:00) 22.3 5.56 (04:30) 3.33 (04:30) 0 0 0 0 0
17-09-2019 31.6 (15:30) 17.4 (00:00) 24.5 12.5 (19:10) 7.5 (19:10) 5.2 0 0 0 5.2

Gráficas

Temp. máximas Temp. mínimas Temp. medias Precipitaciones Rachas de viento máximas Velocidades máximas media en intervalos de 10 minutos

Datos horarios

Fecha y hora oficial Temperatura (ºC) Velocidad del viento (km/h) Dirección del viento Racha (km/h) Dirección de racha Precipitación (mm) Presión (hPa) Tendencia (hPa) Humedad (%)
2019-10-16 23:00:00 16 3 Sur 8 Sur 0 -- -- 67
2019-10-16 22:00:00 16.2 4 Sur 9 Sudoeste 0 -- -- 65
2019-10-16 21:00:00 16.7 3 Sudoeste 9 Sudeste 0 -- -- 64
2019-10-16 20:00:00 17.1 5 Sur 12 Sur 0 -- -- 58
2019-10-16 19:00:00 18 4 Sur 16 Sudoeste 0 -- -- 56
2019-10-16 18:00:00 18.3 11 Sudoeste 20 Sudoeste 0 -- -- 52
2019-10-16 17:00:00 18.7 15 Sudoeste 23 Sudoeste 0 -- -- 51
2019-10-16 16:00:00 19 8 Sur 19 Sudoeste 0 -- -- 53
2019-10-16 15:00:00 17 8 Oeste 19 Sudoeste 0 -- -- 60
2019-10-16 14:00:00 16.6 13 Sudoeste 24 Sur 0 -- -- 62
2019-10-16 13:00:00 16.3 12 Sudoeste 22 Sudoeste 0 -- -- 65
2019-10-16 12:00:00 15.2 6 Sur 14 Sur 0 -- -- 70
2019-10-16 11:00:00 13 3 Sudoeste 5 Sudoeste 0 -- -- 77
2019-10-16 10:00:00 9.4 2 Norte 4 Nordeste 0 -- -- 96
2019-10-16 09:00:00 6.9 3 Nordeste 4 Norte 0 -- -- 95
2019-10-16 08:00:00 7.1 3 Norte 4 Norte 0 -- -- 95
2019-10-16 07:00:00 7.3 3 Norte 4 Nordeste 0 -- -- 95
2019-10-16 06:00:00 7.5 2 Norte 4 Norte 0 -- -- 94
2019-10-16 05:00:00 8 2 Nordeste 3 Norte 0 -- -- 93
2019-10-16 04:00:00 8.6 0 Calma 4 Norte 0 -- -- 91
2019-10-16 03:00:00 9 2 Norte 3 Norte 0 -- -- 90
2019-10-16 02:00:00 9.3 2 Norte 3 Norte 0 -- -- 89
2019-10-16 01:00:00 9.9 0 Calma 4 Norte 0 -- -- 85
2019-10-16 00:00:00 10.5 3 Norte 4 Noroeste 0 -- -- 84
2019-10-15 23:00:00 11.1 3 Nordeste 5 Nordeste 0 -- -- 81
2019-10-15 22:00:00 11.4 3 Nordeste 4 Norte 0 -- -- 83
2019-10-15 21:00:00 12.4 2 Este 4 Sudoeste 0 -- -- 76
2019-10-15 20:00:00 14.4 4 Sudoeste 13 Sudoeste 0 -- -- 68
2019-10-15 19:00:00 16.8 6 Sudoeste 17 Sudoeste 0 -- -- 52
2019-10-15 18:00:00 17.5 8 Sudoeste 19 Sudoeste 0 -- -- 48
2019-10-15 17:00:00 17.6 9 Sur 21 Sudoeste 0 -- -- 50
2019-10-15 16:00:00 17.4 10 Sur 22 Sudoeste 0 -- -- 52
2019-10-15 15:00:00 17 9 Sudoeste 16 Sudoeste 0 -- -- 52
2019-10-15 14:00:00 16.7 3 Oeste 12 Sudoeste 0 -- -- 52
2019-10-15 13:00:00 15.1 5 Norte 10 Noroeste 0 -- -- 58
2019-10-15 12:00:00 14.4 3 Sudoeste 9 Sudoeste 0 -- -- 63
2019-10-15 11:00:00 11.8 3 Noroeste 7 Norte 0 -- -- 71
2019-10-15 10:00:00 9.2 0 Calma 6 Norte 0 -- -- 86
2019-10-15 09:00:00 5.6 3 Sudoeste 8 Norte 0 -- -- 92
2019-10-15 08:00:00 6 8 Norte 12 Norte 0 -- -- 93
2019-10-15 07:00:00 6.4 5 Norte 5 Norte 0 -- -- 91
2019-10-15 06:00:00 5.6 0 Calma 4 Norte 0 -- -- 93
2019-10-15 05:00:00 6.1 3 Sudoeste 10 Sudoeste 0 -- -- 91
2019-10-15 04:00:00 6.8 2 Norte 6 Sur 0 -- -- 88
2019-10-15 03:00:00 8 3 Sudeste 7 Este 0 -- -- 83
2019-10-15 02:00:00 8.6 2 Nordeste 13 Oeste 0 -- -- 80
2019-10-15 01:00:00 8.9 2 Noroeste 12 Noroeste 0 -- -- 78
2019-10-15 00:00:00 9 5 Sudoeste 12 Noroeste 0 -- -- 81
2019-10-14 23:00:00 9.9 6 Oeste 11 Noroeste 0 -- -- 77
2019-10-14 22:00:00 11.2 7 Oeste 16 Oeste 0 -- -- 70
2019-10-14 21:00:00 12 10 Noroeste 19 Noroeste 0 -- -- 72
2019-10-14 20:00:00 13.1 5 Norte 15 Noroeste 0 -- -- 77
2019-10-14 19:00:00 14.1 6 Oeste 22 Oeste 0.2 -- -- 66
2019-10-14 18:00:00 13.8 14 Noroeste 27 Oeste 0 -- -- 77
2019-10-14 17:00:00 14.1 15 Sudoeste 27 Sudoeste 0 -- -- 82
2019-10-14 16:00:00 13.6 10 Sudoeste 24 Sudoeste 1.8 -- -- 90
2019-10-14 15:00:00 13.2 16 Sudoeste 29 Sudoeste 4.8 -- -- 92
2019-10-14 14:00:00 15.1 10 Sudoeste 29 Sudoeste 0 -- -- 77
2019-10-14 13:00:00 15 18 Sudoeste 30 Sudoeste 0 -- -- 72
2019-10-14 12:00:00 15.4 15 Sudoeste 33 Sudoeste 0 -- -- 71
2019-10-14 11:00:00 14.9 18 Sudoeste 32 Sudoeste 0 -- -- 80
2019-10-14 10:00:00 14 13 Sur 28 Sudoeste 0 -- -- 88
2019-10-14 09:00:00 13.5 17 Sudoeste 49 Sur 0 -- -- 85
2019-10-14 08:00:00 15.1 22 Sur 45 Sur 0.6 -- -- 88
2019-10-14 07:00:00 15.5 18 Sur 41 Sur 3 -- -- 86
2019-10-14 06:00:00 15.7 9 Sur 17 Sur 0 -- -- 78
2019-10-14 05:00:00 15.7 7 Sur 16 Sur 0 -- -- 75
2019-10-14 04:00:00 15.8 9 Sudoeste 14 Sudoeste 0 -- -- 73
2019-10-14 03:00:00 16.6 8 Sudoeste 18 Sudoeste 0 -- -- 67
2019-10-14 02:00:00 17.8 7 Sudoeste 17 Sur 0 -- -- 59
2019-10-14 01:00:00 17 8 Sudoeste 14 Sudoeste 0 -- -- 63
2019-10-14 00:00:00 17.6 6 Sudoeste 14 Sudoeste 0 -- -- 60
2019-10-13 23:00:00 18.7 9 Sudoeste 15 Sudoeste 0 -- -- 57
2019-10-13 22:00:00 18.6 6 Sudoeste 10 Oeste 0 -- -- 56
2019-10-13 21:00:00 19.8 4 Sudoeste 15 Sur 0 -- -- 52
2019-10-13 20:00:00 21.5 6 Sudeste 31 Sur 0 -- -- 48
2019-10-13 19:00:00 23.7 16 Sur 34 Sudoeste 0 -- -- 42
2019-10-13 18:00:00 24 17 Sudoeste 30 Sur 0 -- -- 45
2019-10-13 17:00:00 23.9 16 Sudoeste 27 Sudoeste 0 -- -- 46
2019-10-13 16:00:00 22.8 13 Sudoeste 26 Sudoeste 0 -- -- 51
2019-10-13 15:00:00 21.1 12 Sudoeste 32 Sur 0 -- -- 56
2019-10-13 14:00:00 21.2 19 Sur 28 Sur 0 -- -- 53
2019-10-13 13:00:00 19.1 17 Sur 27 Sur 0 -- -- 60
2019-10-13 12:00:00 18.7 14 Sur 26 Sudeste 0 -- -- 63
2019-10-13 11:00:00 17.8 13 Sur 24 Sur 0 -- -- 67
2019-10-13 10:00:00 16.6 7 Sur 14 Sur 0 -- -- 72
2019-10-13 09:00:00 16.2 5 Sudoeste 9 Sudoeste 0 -- -- 76
2019-10-13 08:00:00 16.2 5 Oeste 10 Oeste 0 -- -- 76
2019-10-13 07:00:00 16.5 4 Oeste 9 Sudoeste 0 -- -- 75
2019-10-13 06:00:00 16.8 5 Sudoeste 12 Sudoeste 0 -- -- 72
2019-10-13 05:00:00 17.1 7 Sudoeste 19 Sur 0 -- -- 71
2019-10-13 04:00:00 17.2 10 Sudoeste 19 Sudoeste 0 -- -- 70
2019-10-13 03:00:00 17.3 11 Sudoeste 19 Sudoeste 0 -- -- 69
2019-10-13 02:00:00 17.4 11 Sudoeste 18 Sudoeste 0 -- -- 71
2019-10-13 01:00:00 18.5 9 Sur 17 Sur 0 -- -- 71
2019-10-13 00:00:00 19.8 9 Sudoeste 28 Sudoeste 0 -- -- 69
2019-10-12 23:00:00 21.5 14 Sudoeste 30 Sudoeste 0 -- -- 65
2019-10-12 22:00:00 23.7 13 Sudoeste 30 Sudoeste 0 -- -- 42
2019-10-12 21:00:00 25.3 17 Sudoeste 40 Sudoeste 0 -- -- 37
2019-10-12 20:00:00 27.2 18 Sudoeste 41 Sudoeste 0 -- -- 35
2019-10-12 19:00:00 29.1 18 Sur 45 Sudoeste 0 -- -- 28
2019-10-12 18:00:00 30.1 26 Sur 48 Sudoeste 0 -- -- 26
2019-10-12 17:00:00 29.2 21 Sur 43 Sur 0 -- -- 29
2019-10-12 16:00:00 28.3 18 Sur 41 Sur 0 -- -- 34
2019-10-12 15:00:00 29.3 21 Sur 39 Sudeste 0 -- -- 32
2019-10-12 14:00:00 28.4 19 Sur 36 Sur 0 -- -- 33
2019-10-12 13:00:00 26.1 15 Sudoeste 31 Sudoeste 0 -- -- 42
2019-10-12 12:00:00 22.5 6 Oeste 17 Oeste 0 -- -- 56
2019-10-12 11:00:00 21 8 Oeste 14 Oeste 0 -- -- 59
2019-10-12 10:00:00 18.1 0 Calma 5 Este 0 -- -- 72
2019-10-12 09:00:00 17.1 5 Sudeste 9 Sudoeste 0 -- -- 72
2019-10-12 08:00:00 18 8 Oeste 14 Oeste 0 -- -- 68
2019-10-12 07:00:00 18.1 9 Noroeste 13 Oeste 0 -- -- 68
2019-10-12 06:00:00 19 4 Oeste 12 Oeste 0 -- -- 64
2019-10-12 05:00:00 20 5 Sudeste 8 Sudeste 0 -- -- 59
2019-10-12 04:00:00 20 3 Sudeste 7 Sur 0 -- -- 60
2019-10-12 03:00:00 19.8 3 Sur 7 Sur 0 -- -- 60
2019-10-12 02:00:00 19.6 5 Sudoeste 9 Sudoeste 0 -- -- 63
2019-10-12 01:00:00 20.3 6 Oeste 10 Oeste 0 -- -- 59
2019-10-12 00:00:00 21.6 5 Sudoeste 12 Oeste 0 -- -- 56
2019-10-11 23:00:00 23.3 6 Sudeste 13 Sudeste 0 -- -- 52
2019-10-11 22:00:00 23.8 6 Sur 12 Sur 0 -- -- 51
2019-10-11 21:00:00 24.6 9 Sur 18 Sur 0 -- -- 48
2019-10-11 20:00:00 25.5 6 Sur 17 Sudeste 0 -- -- 45
2019-10-11 19:00:00 27.4 12 Sur 23 Sur 0 -- -- 41
2019-10-11 18:00:00 27.5 13 Sudeste 27 Sur 0 -- -- 41
2019-10-11 17:00:00 28.9 15 Sur 33 Sur 0 -- -- 39
2019-10-11 16:00:00 28.8 16 Sur 36 Sudeste 0 -- -- 39
2019-10-11 15:00:00 29 18 Sur 31 Sur 0 -- -- 37
2019-10-11 14:00:00 28.1 15 Sur 28 Sur 0 -- -- 40
2019-10-11 13:00:00 25.6 4 Sur 15 Sur 0 -- -- 47
2019-10-11 12:00:00 23.1 4 Norte 8 Norte 0 -- -- 50
2019-10-11 11:00:00 20.2 3 Norte 8 Nordeste 0 -- -- 55
2019-10-11 10:00:00 17 4 Nordeste 8 Nordeste 0 -- -- 61
2019-10-11 09:00:00 13.3 2 Nordeste 6 Nordeste 0 -- -- 73
2019-10-11 08:00:00 13.4 4 Nordeste 6 Nordeste 0 -- -- 72
2019-10-11 07:00:00 14.2 4 Nordeste 9 Nordeste 0 -- -- 68
2019-10-11 06:00:00 14.6 6 Nordeste 9 Nordeste 0 -- -- 67
2019-10-11 05:00:00 15.9 7 Nordeste 13 Nordeste 0 -- -- 60
2019-10-11 04:00:00 16.2 8 Nordeste 12 Nordeste 0 -- -- 59
2019-10-11 03:00:00 17 8 Nordeste 10 Nordeste 0 -- -- 58
2019-10-11 02:00:00 17.6 9 Nordeste 15 Nordeste 0 -- -- 55
2019-10-11 01:00:00 18.3 8 Nordeste 12 Nordeste 0 -- -- 53
2019-10-11 00:00:00 18.8 9 Nordeste 11 Nordeste 0 -- -- 53
2019-10-10 23:00:00 20 7 Nordeste 14 Nordeste 0 -- -- 47
2019-10-10 22:00:00 20 5 Nordeste 7 Nordeste 0 -- -- 49
2019-10-10 21:00:00 22.5 6 Noroeste 8 Noroeste 0 -- -- 42
2019-10-10 20:00:00 25.7 2 Sur 12 Sur 0 -- -- 39
2019-10-10 19:00:00 28.2 7 Sur 16 Sudoeste 0 -- -- 32
2019-10-10 18:00:00 29.6 10 Sudoeste 19 Sudoeste 0 -- -- 27
2019-10-10 17:00:00 30 8 Sur 21 Sur 0 -- -- 24
2019-10-10 16:00:00 29.8 10 Sudoeste 17 Sudoeste 0 -- -- 25
2019-10-10 15:00:00 27.6 7 Noroeste 15 Sudoeste 0 -- -- 34
2019-10-10 14:00:00 26.4 4 Sudoeste 11 Sudoeste 0 -- -- 31
2019-10-10 13:00:00 24.6 3 Sudeste 11 Nordeste 0 -- -- 33
2019-10-10 12:00:00 21.9 6 Nordeste 15 Nordeste 0 -- -- 39
2019-10-10 11:00:00 19.5 10 Nordeste 18 Nordeste 0 -- -- 45
2019-10-10 10:00:00 17.4 10 Norte 18 Norte 0 -- -- 50
2019-10-10 09:00:00 15.6 8 Nordeste 15 Norte 0 -- -- 54
2019-10-10 08:00:00 15.2 8 Nordeste 18 Nordeste 0 -- -- 55
2019-10-10 07:00:00 16.3 8 Nordeste 18 Norte 0 -- -- 49
2019-10-10 06:00:00 17.2 7 Nordeste 21 Norte 0 -- -- 45
2019-10-10 05:00:00 17.8 9 Norte 21 Nordeste 0 -- -- 42
2019-10-10 04:00:00 18.5 13 Norte 28 Norte 0 -- -- 41
2019-10-10 03:00:00 18.9 15 Norte 27 Norte 0 -- -- 40
2019-10-10 02:00:00 19.6 16 Norte 29 Norte 0 -- -- 39
2019-10-10 01:00:00 20 16 Norte 26 Norte 0 -- -- 36
2019-10-10 00:00:00 20.6 18 Norte 30 Norte 0 -- -- 33
2019-10-09 23:00:00 21.8 14 Norte 30 Norte 0 -- -- 30
2019-10-09 22:00:00 22.9 17 Norte 29 Norte 0 -- -- 32
2019-10-09 21:00:00 23.9 17 Norte 28 Norte 0 -- -- 34
2019-10-09 20:00:00 25.3 14 Norte 24 Nordeste 0 -- -- 32
2019-10-09 19:00:00 28 13 Nordeste 24 Nordeste 0 -- -- 29
2019-10-09 18:00:00 29.5 12 Nordeste 21 Nordeste 0 -- -- 23
2019-10-09 17:00:00 29.7 11 Nordeste 19 Nordeste 0 -- -- 23
2019-10-09 16:00:00 29.3 11 Norte 22 Norte 0 -- -- 24
2019-10-09 15:00:00 28.5 13 Norte 26 Norte 0 -- -- 24
2019-10-09 14:00:00 26.9 15 Norte 29 Norte 0 -- -- 33
2019-10-09 13:00:00 25.1 15 Norte 28 Norte 0 -- -- 44
2019-10-09 12:00:00 23.2 20 Norte 41 Norte 0 -- -- 51
2019-10-09 11:00:00 21.4 24 Norte 39 Norte 0 -- -- 55
2019-10-09 10:00:00 19.7 22 Norte 36 Norte 0 -- -- 64
2019-10-09 09:00:00 18.4 18 Norte 34 Norte 0 -- -- 70
2019-10-09 08:00:00 18.9 20 Norte 35 Norte 0 -- -- 71
2019-10-09 07:00:00 19.4 19 Norte 38 Norte 0 -- -- 69
2019-10-09 06:00:00 19.6 22 Norte 37 Norte 0 -- -- 70
2019-10-09 05:00:00 20.3 19 Norte 30 Norte 0 -- -- 68
2019-10-09 04:00:00 21.1 15 Norte 28 Nordeste 0 -- -- 64
2019-10-09 03:00:00 21.5 13 Nordeste 27 Norte 0 -- -- 62
2019-10-09 02:00:00 22.2 14 Norte 24 Norte 0 -- -- 59
2019-10-09 01:00:00 23.2 10 Norte 21 Nordeste 0 -- -- 54
2019-10-09 00:00:00 23.6 10 Nordeste 17 Nordeste 0 -- -- 50
2019-10-08 23:00:00 22.6 7 Nordeste 9 Nordeste 0 -- -- 48
2019-10-08 22:00:00 23.1 5 Norte 12 Noroeste 0 -- -- 43
2019-10-08 21:00:00 24.5 6 Noroeste 11 Noroeste 0 -- -- 39
2019-10-08 20:00:00 28.1 3 Sudoeste 13 Sur 0 -- -- 34
2019-10-08 19:00:00 31 8 Sudoeste 15 Sudoeste 0 -- -- 27
2019-10-08 18:00:00 32.4 7 Sudoeste 17 Sur 0 -- -- 25
2019-10-08 17:00:00 32.6 7 Sur 16 Sudoeste 0 -- -- 24
2019-10-08 16:00:00 32.3 6 Oeste 20 Sudoeste 0 -- -- 25
2019-10-08 15:00:00 31.3 6 Sudoeste 17 Sudoeste 0 -- -- 26
2019-10-08 14:00:00 30.3 5 Sur 14 Sur 0 -- -- 27
2019-10-08 13:00:00 28 5 Oeste 10 Noroeste 0 -- -- 29
2019-10-08 12:00:00 26.2 3 Sur 9 Nordeste 0 -- -- 34
2019-10-08 11:00:00 22.3 7 Nordeste 15 Nordeste 0 -- -- 42
2019-10-08 10:00:00 19.5 8 Nordeste 16 Nordeste 0 -- -- 49
2019-10-08 09:00:00 16 5 Nordeste 13 Nordeste 0 -- -- 57
2019-10-08 08:00:00 16.6 8 Nordeste 12 Nordeste 0 -- -- 54
2019-10-08 07:00:00 17.4 7 Este 15 Norte 0 -- -- 50
2019-10-08 06:00:00 17.1 9 Este 13 Nordeste 0 -- -- 52
2019-10-08 05:00:00 18.9 8 Nordeste 15 Nordeste 0 -- -- 44
2019-10-08 04:00:00 19.8 8 Nordeste 18 Nordeste 0 -- -- 41
2019-10-08 03:00:00 20.6 7 Nordeste 21 Nordeste 0 -- -- 40
2019-10-08 02:00:00 22.3 12 Nordeste 21 Norte 0 -- -- 36
2019-10-08 01:00:00 22.3 10 Norte 19 Norte 0 -- -- 37
2019-10-08 00:00:00 22.7 8 Norte 20 Norte 0 -- -- 36
2019-10-07 23:00:00 23.9 11 Norte 17 Norte 0 -- -- 34
2019-10-07 22:00:00 23.7 11 Norte 15 Norte 0 -- -- 35
2019-10-07 21:00:00 23.1 7 Norte 11 Norte 0 -- -- 38
2019-10-07 20:00:00 27.7 5 Sur 17 Sudoeste 0 -- -- 30
2019-10-07 19:00:00 30.8 13 Sudoeste 26 Sudoeste 0 -- -- 24
2019-10-07 18:00:00 32.5 17 Sudoeste 24 Sudoeste 0 -- -- 22
2019-10-07 17:00:00 33.5 7 Oeste 17 Sudoeste 0 -- -- 19
2019-10-07 16:00:00 32.5 7 Oeste 15 Oeste 0 -- -- 20
2019-10-07 15:00:00 30.7 6 Sudoeste 11 Sudoeste 0 -- -- 23
2019-10-07 14:00:00 29.7 5 Noroeste 17 Oeste 0 -- -- 24
2019-10-07 13:00:00 29.1 8 Sur 13 Sur 0 -- -- 23
2019-10-07 12:00:00 26.2 4 Norte 18 Norte 0 -- -- 25
2019-10-07 11:00:00 23.6 10 Nordeste 18 Norte 0 -- -- 30
2019-10-07 10:00:00 21.2 6 Nordeste 26 Norte 0 -- -- 38
2019-10-07 09:00:00 18.3 9 Nordeste 20 Nordeste 0 -- -- 50
2019-10-07 08:00:00 18.7 11 Este 26 Norte 0 -- -- 48
2019-10-07 07:00:00 19 8 Este 28 Norte 0 -- -- 47
2019-10-07 06:00:00 19.3 15 Norte 28 Norte 0 -- -- 48
2019-10-07 05:00:00 19.5 13 Norte 23 Norte 0 -- -- 50
2019-10-07 04:00:00 19.4 14 Norte 23 Norte 0 -- -- 46
2019-10-07 03:00:00 20.4 15 Norte 23 Norte 0 -- -- 42
2019-10-07 02:00:00 20.7 14 Norte 22 Norte 0 -- -- 40
2019-10-07 01:00:00 20.4 12 Norte 17 Norte 0 -- -- 42
2019-10-07 00:00:00 20.7 6 Nordeste 13 Este 0 -- -- 42
2019-10-06 23:00:00 22.3 7 Nordeste 17 Nordeste 0 -- -- 37
2019-10-06 22:00:00 23.5 10 Nordeste 16 Norte 0 -- -- 34
2019-10-06 21:00:00 23.9 6 Norte 16 Norte 0 -- -- 33
2019-10-06 20:00:00 25.8 7 Norte 13 Norte 0 -- -- 30
2019-10-06 19:00:00 29.1 0 Calma 9 Noroeste 0 -- -- 28
2019-10-06 18:00:00 29.7 6 Norte 12 Norte 0 -- -- 26
2019-10-06 17:00:00 29.6 7 Norte 16 Noroeste 0 -- -- 25
2019-10-06 16:00:00 29.2 6 Norte 17 Noroeste 0 -- -- 28
2019-10-06 15:00:00 28.2 9 Norte 20 Nordeste 0 -- -- 28
2019-10-06 14:00:00 27.1 13 Norte 23 Nordeste 0 -- -- 30
2019-10-06 13:00:00 25.4 10 Este 24 Este 0 -- -- 37
2019-10-06 12:00:00 23.1 9 Nordeste 31 Norte 0 -- -- 43
2019-10-06 11:00:00 20.5 17 Norte 34 Norte 0 -- -- 52
2019-10-06 10:00:00 18.3 18 Norte 32 Norte 0 -- -- 58
2019-10-06 09:00:00 16.1 6 Este 22 Norte 0 -- -- 66
2019-10-06 08:00:00 15.7 15 Norte 26 Norte 0 -- -- 66
2019-10-06 07:00:00 16 9 Nordeste 23 Norte 0 -- -- 63
2019-10-06 06:00:00 16 7 Nordeste 28 Nordeste 0 -- -- 61
2019-10-06 05:00:00 16.3 7 Nordeste 23 Norte 0 -- -- 56
2019-10-06 04:00:00 17.5 11 Norte 22 Norte 0 -- -- 53
2019-10-06 03:00:00 18.1 8 Norte 21 Norte 0 -- -- 52
2019-10-06 02:00:00 18.5 10 Norte 19 Norte 0 -- -- 49
2019-10-06 01:00:00 19.4 15 Norte 25 Nordeste 0 -- -- 46
2019-10-06 00:00:00 19.6 7 Norte 17 Norte 0 -- -- 42
2019-10-05 23:00:00 18.7 7 Norte 13 Nordeste 0 -- -- 48
2019-10-05 22:00:00 19.8 2 Norte 6 Norte 0 -- -- 44
2019-10-05 21:00:00 21.9 7 Norte 9 Norte 0 -- -- 44
2019-10-05 20:00:00 25 5 Sudoeste 14 Sur 0 -- -- 44
2019-10-05 19:00:00 27.3 11 Sudoeste 17 Sudoeste 0 -- -- 40
2019-10-05 18:00:00 28.4 12 Sudoeste 23 Sudoeste 0 -- -- 38
2019-10-05 17:00:00 28.7 9 Sur 21 Sudoeste 0 -- -- 38
2019-10-05 16:00:00 28.1 6 Sur 20 Sudoeste 0 -- -- 39
2019-10-05 15:00:00 27.2 8 Sudoeste 17 Sur 0 -- -- 41
2019-10-05 14:00:00 25.8 8 Sudoeste 21 Sudoeste 0 -- -- 44
2019-10-05 13:00:00 24.7 8 Sur 17 Sur 0 -- -- 47
2019-10-05 12:00:00 22.8 6 Sur 14 Sur 0 -- -- 50
2019-10-05 11:00:00 19.9 4 Noroeste 11 Nordeste 0 -- -- 57
2019-10-05 10:00:00 17.9 7 Nordeste 17 Nordeste 0 -- -- 66
2019-10-05 09:00:00 14.5 8 Nordeste 14 Nordeste 0 -- -- 81
2019-10-05 08:00:00 13.6 0 Calma 11 Nordeste 0 -- -- 81
2019-10-05 07:00:00 16.8 9 Norte 16 Nordeste 0 -- -- 69
2019-10-05 06:00:00 14.7 0 Calma 5 Norte 0 -- -- 76
2019-10-05 05:00:00 16.5 0 Calma 12 Norte 0 -- -- 69
2019-10-05 04:00:00 17.6 8 Nordeste 14 Norte 0 -- -- 65
2019-10-05 03:00:00 18.6 8 Nordeste 15 Nordeste 0 -- -- 62
2019-10-05 02:00:00 19 5 Nordeste 21 Norte 0 -- -- 61
2019-10-05 01:00:00 20.3 13 Norte 21 Norte 0 -- -- 58
2019-10-05 00:00:00 19.5 5 Nordeste 13 Nordeste 0 -- -- 61
2019-10-04 23:00:00 19.2 6 Nordeste 9 Nordeste 0 -- -- 60
2019-10-04 22:00:00 19.9 4 Nordeste 8 Norte 0 -- -- 57
2019-10-04 21:00:00 22.3 3 Sur 5 Sudoeste 0 -- -- 50
2019-10-04 20:00:00 25.3 4 Sudoeste 15 Sudoeste 0 -- -- 42
2019-10-04 19:00:00 27.4 10 Sudoeste 18 Sudoeste 0 -- -- 35
2019-10-04 18:00:00 28.5 11 Sudoeste 20 Sudoeste 0 -- -- 35
2019-10-04 17:00:00 28.9 9 Sur 17 Sur 0 -- -- 34
2019-10-04 16:00:00 27.8 7 Noroeste 17 Noroeste 0 -- -- 37
2019-10-04 15:00:00 27.5 6 Sudoeste 14 Sudoeste 0 -- -- 39
2019-10-04 14:00:00 26.3 3 Este 13 Oeste 0 -- -- 44
2019-10-04 13:00:00 24.7 3 Sudoeste 11 Norte 0 -- -- 49
2019-10-04 12:00:00 22.6 6 Noroeste 12 Oeste 0 -- -- 55
2019-10-04 11:00:00 20.8 6 Oeste 10 Oeste 0 -- -- 62
2019-10-04 10:00:00 17.3 3 Sur 8 Norte 0 -- -- 73
2019-10-04 09:00:00 15.1 7 Norte 13 Nordeste 0 -- -- 81
2019-10-04 08:00:00 16.1 8 Nordeste 17 Nordeste 0 -- -- 78
2019-10-04 07:00:00 17.9 12 Norte 26 Norte 0 -- -- 69
2019-10-04 06:00:00 17.9 8 Norte 18 Norte 0 -- -- 69
2019-10-04 05:00:00 18.1 13 Norte 28 Norte 0 -- -- 68
2019-10-04 04:00:00 18.5 12 Norte 20 Norte 0 -- -- 67
2019-10-04 03:00:00 17.9 8 Nordeste 15 Nordeste 0 -- -- 66
2019-10-04 02:00:00 19.2 10 Nordeste 26 Nordeste 0 -- -- 63
2019-10-04 01:00:00 20.2 13 Nordeste 22 Nordeste 0 -- -- 59
2019-10-04 00:00:00 20.2 8 Norte 15 Norte 0 -- -- 61
2019-10-03 23:00:00 19.5 6 Nordeste 10 Nordeste 0 -- -- 43
2019-10-03 22:00:00 20.5 4 Norte 10 Noroeste 0 -- -- 40
2019-10-03 21:00:00 23 9 Noroeste 11 Oeste 0 -- -- 35
2019-10-03 20:00:00 26.1 8 Oeste 11 Oeste 0 -- -- 28
2019-10-03 19:00:00 28.4 8 Noroeste 14 Oeste 0 -- -- 24
2019-10-03 18:00:00 29.3 6 Sudoeste 20 Sudoeste 0 -- -- 28
2019-10-03 17:00:00 29 10 Oeste 21 Noroeste 0 -- -- 28
2019-10-03 16:00:00 28.7 8 Oeste 25 Oeste 0 -- -- 27
2019-10-03 15:00:00 27.3 5 Norte 15 Sudoeste 0 -- -- 28
2019-10-03 14:00:00 26.2 9 Noroeste 20 Norte 0 -- -- 29
2019-10-03 13:00:00 24.4 6 Norte 15 Norte 0 -- -- 32
2019-10-03 12:00:00 21.9 9 Nordeste 19 Nordeste 0 -- -- 38
2019-10-03 11:00:00 19.6 10 Nordeste 17 Norte 0 -- -- 44
2019-10-03 10:00:00 16.7 4 Nordeste 12 Nordeste 0 -- -- 51
2019-10-03 09:00:00 14 9 Nordeste 17 Norte 0 -- -- 58
2019-10-03 08:00:00 13.2 7 Nordeste 18 Nordeste 0 -- -- 62
2019-10-03 07:00:00 13 9 Nordeste 13 Nordeste 0 -- -- 66
2019-10-03 06:00:00 13.1 7 Nordeste 10 Nordeste 0 -- -- 65
2019-10-03 05:00:00 14.1 6 Norte 15 Nordeste 0 -- -- 59
2019-10-03 04:00:00 15.4 8 Nordeste 16 Nordeste 0 -- -- 54
2019-10-03 03:00:00 16.6 9 Norte 18 Norte 0 -- -- 50
2019-10-03 02:00:00 17.2 9 Norte 21 Norte 0 -- -- 47
2019-10-03 01:00:00 17.8 10 Norte 21 Norte 0 -- -- 45
2019-10-03 00:00:00 17.9 8 Norte 17 Norte 0 -- -- 45
2019-10-02 23:00:00 17.8 8 Norte 12 Norte 0 -- -- 46
2019-10-02 22:00:00 17.7 5 Norte 10 Norte 0 -- -- 48
2019-10-02 21:00:00 20.4 6 Norte 18 Norte 0 -- -- 41
2019-10-02 20:00:00 22.9 12 Norte 24 Norte 0 -- -- 35
2019-10-02 19:00:00 24.6 13 Norte 27 Norte 0 -- -- 32
2019-10-02 18:00:00 25.1 17 Nordeste 32 Nordeste 0 -- -- 33
2019-10-02 17:00:00 25.4 17 Norte 31 Norte 0 -- -- 34
2019-10-02 16:00:00 24.6 14 Norte 31 Nordeste 0 -- -- 37
2019-10-02 15:00:00 23.9 23 Norte 34 Norte 0 -- -- 37
2019-10-02 14:00:00 22.9 16 Norte 37 Nordeste 0 -- -- 38
2019-10-02 13:00:00 20.8 26 Norte 41 Norte 0 -- -- 44
2019-10-02 12:00:00 19.3 23 Norte 44 Norte 0 -- -- 48
2019-10-02 11:00:00 17.3 24 Norte 43 Norte 0 -- -- 56
2019-10-02 10:00:00 15.9 18 Norte 31 Nordeste 0 -- -- 62
2019-10-02 09:00:00 14.1 20 Norte 30 Norte 0 -- -- 70
2019-10-02 08:00:00 14.1 15 Nordeste 31 Norte 0 -- -- 72
2019-10-02 07:00:00 14.4 19 Norte 32 Nordeste 0 -- -- 71
2019-10-02 06:00:00 14.9 14 Norte 26 Norte 0 -- -- 69
2019-10-02 05:00:00 15.4 14 Nordeste 27 Nordeste 0 -- -- 68
2019-10-02 04:00:00 16.3 17 Nordeste 28 Norte 0 -- -- 64
2019-10-02 03:00:00 17 17 Nordeste 27 Nordeste 0 -- -- 63
2019-10-02 02:00:00 16.3 8 Nordeste 17 Nordeste 0 -- -- 68
2019-10-02 01:00:00 15.9 3 Nordeste 10 Noroeste 0 -- -- 67
2019-10-02 00:00:00 17.4 6 Noroeste 10 Norte 0 -- -- 61
2019-10-01 23:00:00 19.1 8 Noroeste 18 Noroeste 0 -- -- 54
2019-10-01 22:00:00 20.6 15 Noroeste 24 Oeste 0 -- -- 48
2019-10-01 21:00:00 21.7 8 Oeste 14 Oeste 0 -- -- 46
2019-10-01 20:00:00 23.8 10 Noroeste 19 Noroeste 0 -- -- 40
2019-10-01 19:00:00 25.6 12 Noroeste 21 Oeste 0 -- -- 37
2019-10-01 18:00:00 26.1 10 Noroeste 26 Noroeste 0 -- -- 38
2019-10-01 17:00:00 25.8 12 Noroeste 29 Noroeste 0 -- -- 39
2019-10-01 16:00:00 25.7 18 Noroeste 37 Noroeste 0 -- -- 41
2019-10-01 15:00:00 24.6 14 Norte 27 Norte 0 -- -- 48
2019-10-01 14:00:00 24.3 7 Noroeste 23 Nordeste 0 -- -- 47
2019-10-01 13:00:00 23.3 14 Nordeste 27 Norte 0 -- -- 49
2019-10-01 12:00:00 20.6 18 Nordeste 29 Norte 0 -- -- 57
2019-10-01 11:00:00 19.9 17 Norte 31 Norte 0 -- -- 61
2019-10-01 10:00:00 19.1 16 Norte 25 Norte 0 -- -- 64
2019-10-01 09:00:00 16 10 Norte 17 Norte 0 -- -- 75
2019-10-01 08:00:00 13.9 6 Norte 19 Norte 0 -- -- 74
2019-10-01 07:00:00 15.6 7 Nordeste 16 Nordeste 0 -- -- 74
2019-10-01 06:00:00 13.7 4 Nordeste 12 Nordeste 0 -- -- 72
2019-10-01 05:00:00 14.3 0 Calma 4 Norte 0 -- -- 67
2019-10-01 04:00:00 15.2 3 Nordeste 7 Este 0 -- -- 67
2019-10-01 03:00:00 15.1 2 Norte 6 Nordeste 0 -- -- 63
2019-10-01 02:00:00 16.5 3 Nordeste 11 Nordeste 0 -- -- 57
2019-10-01 01:00:00 16.3 8 Nordeste 10 Nordeste 0 -- -- 60
2019-10-01 00:00:00 16.9 5 Este 9 Sudoeste 0 -- -- 56
2019-09-30 23:00:00 18.7 4 Norte 8 Norte 0 -- -- 50
2019-09-30 22:00:00 20.3 5 Nordeste 8 Norte 0 -- -- 43
2019-09-30 21:00:00 23.5 3 Norte 5 Oeste 0 -- -- 35
2019-09-30 20:00:00 28 4 Oeste 13 Sudoeste 0 -- -- 27
2019-09-30 19:00:00 30.3 9 Sudoeste 21 Sudoeste 0 -- -- 21
2019-09-30 18:00:00 30.8 11 Sur 23 Sudoeste 0 -- -- 21
2019-09-30 17:00:00 30.7 9 Sudoeste 23 Sudoeste 0 -- -- 21
2019-09-30 16:00:00 30.7 10 Sur 22 Sudoeste 0 -- -- 22
2019-09-30 15:00:00 30.3 10 Sudoeste 25 Sudoeste 0 -- -- 25
2019-09-30 14:00:00 29.1 6 Sur 19 Sur 0 -- -- 26
2019-09-30 13:00:00 26.9 8 Sudoeste 17 Sur 0 -- -- 29
2019-09-30 12:00:00 24.9 6 Sur 13 Sur 0 -- -- 39
2019-09-30 11:00:00 21.5 7 Nordeste 17 Nordeste 0 -- -- 51
2019-09-30 10:00:00 19.4 9 Nordeste 14 Nordeste 0 -- -- 61
2019-09-30 09:00:00 16.9 7 Nordeste 12 Nordeste 0 -- -- 72
2019-09-30 08:00:00 17 6 Nordeste 18 Nordeste 0 -- -- 72
2019-09-30 07:00:00 18.7 12 Norte 23 Norte 0 -- -- 66
2019-09-30 06:00:00 18.9 12 Nordeste 24 Norte 0 -- -- 65
2019-09-30 05:00:00 19.1 10 Nordeste 20 Norte 0 -- -- 63
2019-09-30 04:00:00 19.1 11 Norte 19 Nordeste 0 -- -- 57
2019-09-30 03:00:00 19.7 12 Norte 20 Norte 0 -- -- 56
2019-09-30 02:00:00 18.6 9 Norte 14 Nordeste 0 -- -- 56
2019-09-30 01:00:00 18.7 5 Norte 11 Norte 0 -- -- 54
2019-09-30 00:00:00 18.8 5 Norte 8 Norte 0 -- -- 53
2019-09-29 23:00:00 19.4 7 Norte 9 Norte 0 -- -- 54
2019-09-29 22:00:00 20.8 4 Nordeste 10 Este 0 -- -- 44
2019-09-29 21:00:00 24.4 4 Oeste 9 Sudoeste 0 -- -- 34
2019-09-29 20:00:00 27.4 4 Sudoeste 13 Sudoeste 0 -- -- 32
2019-09-29 19:00:00 30.1 7 Sudoeste 14 Sudoeste 0 -- -- 26
2019-09-29 18:00:00 30.8 7 Sur 19 Oeste 0 -- -- 24
2019-09-29 17:00:00 30.7 6 Oeste 15 Sudoeste 0 -- -- 24
2019-09-29 16:00:00 30.6 5 Oeste 17 Sudoeste 0 -- -- 23
2019-09-29 15:00:00 29.7 8 Sudoeste 19 Oeste 0 -- -- 25
2019-09-29 14:00:00 29 6 Sur 14 Sudoeste 0 -- -- 28
2019-09-29 13:00:00 26.9 6 Sudoeste 14 Sudoeste 0 -- -- 32
2019-09-29 12:00:00 24.4 2 Sudoeste 8 Sudoeste 0 -- -- 38
2019-09-29 11:00:00 20.5 4 Nordeste 14 Nordeste 0 -- -- 47
2019-09-29 10:00:00 17.1 9 Nordeste 13 Nordeste 0 -- -- 58
2019-09-29 09:00:00 14.2 8 Nordeste 15 Nordeste 0 -- -- 64
2019-09-29 08:00:00 14.1 8 Nordeste 15 Nordeste 0 -- -- 63
2019-09-29 07:00:00 14.8 9 Nordeste 20 Nordeste 0 -- -- 59
2019-09-29 06:00:00 13.6 9 Nordeste 12 Nordeste 0 -- -- 72
2019-09-29 05:00:00 14.5 8 Nordeste 10 Nordeste 0 -- -- 65
2019-09-29 04:00:00 15.6 5 Nordeste 15 Nordeste 0 -- -- 61
2019-09-29 03:00:00 15.2 9 Nordeste 11 Nordeste 0 -- -- 66
2019-09-29 02:00:00 16.3 7 Nordeste 12 Nordeste 0 -- -- 62
2019-09-29 01:00:00 17 7 Nordeste 10 Nordeste 0 -- -- 60
2019-09-29 00:00:00 18.4 6 Nordeste 12 Norte 0 -- -- 55
2019-09-28 23:00:00 19 8 Norte 11 Norte 0 -- -- 50
2019-09-28 22:00:00 20 5 Nordeste 10 Noroeste 0 -- -- 46
2019-09-28 21:00:00 23.3 10 Noroeste 12 Noroeste 0 -- -- 37
2019-09-28 20:00:00 27.7 4 Oeste 14 Sudoeste 0 -- -- 30
2019-09-28 19:00:00 29.5 10 Sudoeste 17 Oeste 0 -- -- 24
2019-09-28 18:00:00 30.4 10 Sudoeste 17 Sudoeste 0 -- -- 22
2019-09-28 17:00:00 30.1 8 Sudoeste 23 Sudoeste 0 -- -- 22
2019-09-28 16:00:00 29.8 8 Sur 17 Sudoeste 0 -- -- 25
2019-09-28 15:00:00 28.9 8 Sudoeste 18 Sudoeste 0 -- -- 27
2019-09-28 14:00:00 27.4 8 Oeste 13 Sudoeste 0 -- -- 33
2019-09-28 13:00:00 25.7 4 Oeste 12 Oeste 0 -- -- 38
2019-09-28 12:00:00 23.1 4 Norte 12 Nordeste 0 -- -- 45
2019-09-28 11:00:00 20.7 10 Nordeste 16 Nordeste 0 -- -- 51
2019-09-28 10:00:00 18.4 10 Nordeste 16 Nordeste 0 -- -- 60
2019-09-28 09:00:00 16.3 8 Nordeste 17 Nordeste 0 -- -- 70
2019-09-28 08:00:00 16.4 10 Norte 23 Norte 0 -- -- 71
2019-09-28 07:00:00 16.8 11 Nordeste 17 Nordeste 0 -- -- 70
2019-09-28 06:00:00 17 14 Norte 20 Norte 0 -- -- 70
2019-09-28 05:00:00 17.3 12 Norte 26 Nordeste 0 -- -- 69
2019-09-28 04:00:00 18 14 Norte 27 Norte 0 -- -- 66
2019-09-28 03:00:00 18.5 16 Norte 26 Norte 0 -- -- 64
2019-09-28 02:00:00 19 14 Norte 23 Norte 0 -- -- 62
2019-09-28 01:00:00 19.8 12 Nordeste 23 Nordeste 0 -- -- 60
2019-09-28 00:00:00 20.8 12 Nordeste 20 Nordeste 0 -- -- 57
2019-09-27 23:00:00 21.5 9 Nordeste 16 Norte 0 -- -- 49
2019-09-27 22:00:00 21.2 8 Nordeste 13 Nordeste 0 -- -- 46
2019-09-27 21:00:00 22.7 6 Norte 13 Noroeste 0 -- -- 42
2019-09-27 20:00:00 25.5 8 Noroeste 19 Noroeste 0 -- -- 34
2019-09-27 19:00:00 28.1 13 Noroeste 22 Oeste 0 -- -- 26
2019-09-27 18:00:00 29.5 13 Oeste 27 Oeste 0 -- -- 21
2019-09-27 17:00:00 30.1 12 Oeste 33 Oeste 0 -- -- 20
2019-09-27 16:00:00 29.5 5 Noroeste 21 Noroeste 0 -- -- 23
2019-09-27 15:00:00 29 10 Norte 16 Norte 0 -- -- 23
2019-09-27 14:00:00 28.4 9 Oeste 19 Norte 0 -- -- 22
2019-09-27 13:00:00 26.9 9 Norte 23 Norte 0 -- -- 25
2019-09-27 12:00:00 25.1 15 Norte 26 Norte 0 -- -- 29
2019-09-27 11:00:00 22.7 14 Norte 24 Norte 0 -- -- 46
2019-09-27 10:00:00 19.6 14 Nordeste 23 Nordeste 0 -- -- 54
2019-09-27 09:00:00 17.1 14 Norte 24 Norte 0 -- -- 60
2019-09-27 08:00:00 16.8 13 Norte 22 Nordeste 0 -- -- 58
2019-09-27 07:00:00 16.8 5 Nordeste 25 Norte 0 -- -- 58
2019-09-27 06:00:00 17.7 12 Norte 21 Norte 0 -- -- 51
2019-09-27 05:00:00 17.9 13 Norte 25 Norte 0 -- -- 49
2019-09-27 04:00:00 18.5 14 Norte 24 Norte 0 -- -- 46
2019-09-27 03:00:00 18.1 7 Nordeste 18 Norte 0 -- -- 51
2019-09-27 02:00:00 19 10 Norte 20 Norte 0 -- -- 51
2019-09-27 01:00:00 18.6 7 Norte 14 Norte 0 -- -- 55
2019-09-27 00:00:00 18.5 7 Norte 9 Norte 0 -- -- 58
2019-09-26 23:00:00 18.9 8 Norte 10 Norte 0 -- -- 64
2019-09-26 22:00:00 20.6 6 Este 7 Este 0 -- -- 55
2019-09-26 21:00:00 23.2 3 Sudoeste 8 Sudoeste 0 -- -- 46
2019-09-26 20:00:00 26.5 7 Sudoeste 15 Sur 0 -- -- 37
2019-09-26 19:00:00 28.4 9 Sur 16 Sudoeste 0 -- -- 34
2019-09-26 18:00:00 29.1 5 Sur 15 Sudoeste 0 -- -- 33
2019-09-26 17:00:00 29.1 8 Sudoeste 16 Sudoeste 0 -- -- 33
2019-09-26 16:00:00 28.6 5 Sur 18 Sudoeste 0 -- -- 36
2019-09-26 15:00:00 27.7 9 Sudoeste 19 Sur 0 -- -- 37
2019-09-26 14:00:00 26.8 7 Sur 19 Sur 0 -- -- 41
2019-09-26 13:00:00 25 6 Sur 14 Sudoeste 0 -- -- 46
2019-09-26 12:00:00 22.9 4 Sur 12 Nordeste 0 -- -- 49
2019-09-26 11:00:00 20.4 9 Nordeste 16 Nordeste 0 -- -- 57
2019-09-26 10:00:00 18.7 9 Norte 17 Norte 0 -- -- 62
2019-09-26 09:00:00 16.4 8 Norte 17 Norte 0 -- -- 70
2019-09-26 08:00:00 15.9 11 Norte 21 Norte 0 -- -- 71
2019-09-26 07:00:00 16.4 13 Norte 21 Norte 0 -- -- 68
2019-09-26 06:00:00 16.8 12 Norte 19 Nordeste 0 -- -- 66
2019-09-26 05:00:00 17.3 10 Nordeste 24 Norte 0 -- -- 63
2019-09-26 04:00:00 17.6 10 Norte 24 Norte 0 -- -- 62
2019-09-26 03:00:00 17.9 13 Norte 23 Norte 0 -- -- 60
2019-09-26 02:00:00 18.1 10 Norte 22 Nordeste 0 -- -- 60
2019-09-26 01:00:00 18.7 10 Norte 20 Norte 0 -- -- 58
2019-09-26 00:00:00 19.1 10 Norte 17 Norte 0 -- -- 56
2019-09-25 23:00:00 18.6 8 Norte 12 Norte 0 -- -- 59
2019-09-25 22:00:00 19.1 4 Norte 9 Noroeste 0 -- -- 57
2019-09-25 21:00:00 20.6 7 Norte 8 Norte 0 -- -- 52
2019-09-25 20:00:00 23.9 5 Norte 18 Norte 0 -- -- 42
2019-09-25 19:00:00 25.9 9 Norte 22 Norte 0 -- -- 38
2019-09-25 18:00:00 26.4 5 Oeste 18 Oeste 0 -- -- 36
2019-09-25 17:00:00 26.1 8 Noroeste 16 Noroeste 0 -- -- 37
2019-09-25 16:00:00 25.4 9 Norte 19 Oeste 0 -- -- 38
2019-09-25 15:00:00 24.4 6 Norte 21 Norte 0 -- -- 40
2019-09-25 14:00:00 22.9 11 Norte 22 Nordeste 0 -- -- 43
2019-09-25 13:00:00 21.4 13 Norte 27 Norte 0 -- -- 47
2019-09-25 12:00:00 20.2 14 Norte 28 Norte 0 -- -- 50
2019-09-25 11:00:00 18.5 16 Norte 27 Nordeste 0 -- -- 53
2019-09-25 10:00:00 16.3 18 Norte 31 Nordeste 0 -- -- 63
2019-09-25 09:00:00 14.5 12 Norte 23 Norte 0 -- -- 72
2019-09-25 08:00:00 14.3 14 Norte 21 Norte 0 -- -- 73
2019-09-25 07:00:00 14.5 8 Norte 17 Norte 0 -- -- 75
2019-09-25 06:00:00 14.7 10 Norte 18 Nordeste 0 -- -- 75
2019-09-25 05:00:00 15.3 10 Norte 22 Norte 0 -- -- 74
2019-09-25 04:00:00 15.4 9 Norte 17 Nordeste 0 -- -- 73
2019-09-25 03:00:00 14.5 8 Norte 11 Norte 0 -- -- 77
2019-09-25 02:00:00 15.4 4 Nordeste 7 Nordeste 0 -- -- 75
2019-09-25 01:00:00 16.8 5 Norte 17 Noroeste 0 -- -- 68
2019-09-25 00:00:00 16.8 4 Noroeste 9 Noroeste 0 -- -- 69
2019-09-24 23:00:00 18.4 3 Norte 12 Oeste 0 -- -- 68
2019-09-24 22:00:00 20.1 9 Oeste 24 Sudoeste 0 -- -- 64
2019-09-24 21:00:00 21.8 14 Sudoeste 27 Sudoeste 0 -- -- 61
2019-09-24 20:00:00 23.4 16 Oeste 27 Sudoeste 0 -- -- 63
2019-09-24 19:00:00 25.1 19 Sudoeste 35 Sudoeste 0 -- -- 59
2019-09-24 18:00:00 25.3 15 Sudoeste 31 Sudoeste 0 -- -- 57
2019-09-24 17:00:00 24.9 18 Sudoeste 29 Sudoeste 0 -- -- 58
2019-09-24 16:00:00 25 12 Sudoeste 25 Sudoeste 0 -- -- 57
2019-09-24 15:00:00 24.7 12 Sudoeste 25 Sur 0 -- -- 52
2019-09-24 14:00:00 23 7 Sudoeste 18 Sudoeste 0 -- -- 54
2019-09-24 13:00:00 21.5 8 Sur 15 Sudoeste 0 -- -- 56
2019-09-24 12:00:00 19.9 5 Sudoeste 12 Sur 0 -- -- 64
2019-09-24 11:00:00 17.9 5 Sur 8 Sur 0 -- -- 69
2019-09-24 10:00:00 15 4 Este 7 Este 0 -- -- 83
2019-09-24 09:00:00 11.7 0 Calma 5 Nordeste 0 -- -- 95
2019-09-24 08:00:00 10.6 4 Nordeste 7 Norte 0 -- -- 93
2019-09-24 07:00:00 11.1 3 Norte 6 Este 0 -- -- 93
2019-09-24 06:00:00 11.6 3 Nordeste 6 Nordeste 0 -- -- 92
2019-09-24 05:00:00 12.1 4 Nordeste 6 Norte 0 -- -- 91
2019-09-24 04:00:00 12.2 3 Nordeste 4 Nordeste 0 -- -- 91
2019-09-24 03:00:00 12.7 0 Calma 5 Norte 0 -- -- 90
2019-09-24 02:00:00 13.5 3 Norte 5 Nordeste 0 -- -- 87
2019-09-24 01:00:00 14.5 3 Sudoeste 7 Sur 0 -- -- 83
2019-09-24 00:00:00 14.9 4 Norte 5 Norte 0 -- -- 79
2019-09-23 23:00:00 16.1 4 Nordeste 5 Nordeste 0 -- -- 76
2019-09-23 22:00:00 17.2 3 Noroeste 6 Sur 0 -- -- 69
2019-09-23 21:00:00 20.3 5 Sur 7 Sur 0 -- -- 54
2019-09-23 20:00:00 23.2 5 Sur 15 Sudoeste 0 -- -- 45
2019-09-23 19:00:00 24.5 8 Sudoeste 16 Sur 0 -- -- 39
2019-09-23 18:00:00 25 6 Sudoeste 18 Sudoeste 0 -- -- 36
2019-09-23 17:00:00 24.9 8 Sur 17 Sur 0 -- -- 39
2019-09-23 16:00:00 24.4 9 Sur 19 Sur 0 -- -- 40
2019-09-23 15:00:00 23.4 8 Sur 17 Sudoeste 0 -- -- 41
2019-09-23 14:00:00 22.4 8 Oeste 15 Sudoeste 0 -- -- 47
2019-09-23 13:00:00 21.1 6 Sur 12 Sudoeste 0 -- -- 53
2019-09-23 12:00:00 19.8 3 Noroeste 8 Norte 0 -- -- 59
2019-09-23 11:00:00 17.2 4 Nordeste 12 Nordeste 0 -- -- 68
2019-09-23 10:00:00 15.2 6 Este 14 Norte 0 -- -- 78
2019-09-23 09:00:00 12.9 6 Nordeste 13 Norte 0 -- -- 88
2019-09-23 08:00:00 10.8 2 Nordeste 4 Nordeste 0 -- -- 93
2019-09-23 07:00:00 11.4 3 Nordeste 6 Norte 0 -- -- 91
2019-09-23 06:00:00 12.6 3 Nordeste 14 Nordeste 0 -- -- 88
2019-09-23 05:00:00 12.2 6 Nordeste 9 Nordeste 0 -- -- 90
2019-09-23 04:00:00 12.3 3 Nordeste 9 Nordeste 0 -- -- 89
2019-09-23 03:00:00 13.2 6 Nordeste 10 Nordeste 0 -- -- 90
2019-09-23 02:00:00 12.8 4 Nordeste 8 Nordeste 0 -- -- 92
2019-09-23 01:00:00 13.5 2 Norte 6 Norte 0 -- -- 88
2019-09-23 00:00:00 14.4 3 Noroeste 7 Sur 0 -- -- 82
2019-09-22 23:00:00 14.9 3 Sur 10 Sudoeste 0 -- -- 77
2019-09-22 22:00:00 16.6 8 Sudoeste 10 Sudoeste 0 -- -- 67
2019-09-22 21:00:00 17.7 5 Sur 11 Sudoeste 0 -- -- 67
2019-09-22 20:00:00 20 7 Sudoeste 22 Sudoeste 0 -- -- 57
2019-09-22 19:00:00 21.6 14 Sudoeste 24 Sudoeste 0 -- -- 53
2019-09-22 18:00:00 21.9 9 Sudoeste 24 Sudoeste 0 -- -- 57
2019-09-22 17:00:00 22 10 Sudoeste 27 Oeste 0 -- -- 57
2019-09-22 16:00:00 21.3 8 Sudoeste 21 Sur 0 -- -- 60
2019-09-22 15:00:00 21.3 11 Sudoeste 21 Sudoeste 0 -- -- 63
2019-09-22 14:00:00 20.3 6 Sur 15 Sudoeste 0 -- -- 64
2019-09-22 13:00:00 19.1 5 Sudoeste 13 Sudoeste 0 -- -- 74
2019-09-22 12:00:00 17.1 5 Sudoeste 12 Sur 0 -- -- 83
2019-09-22 11:00:00 16 0 Calma 7 Sur 0 -- -- 87
2019-09-22 10:00:00 14.8 3 Sudoeste 6 Sudoeste 0 -- -- 95
2019-09-22 09:00:00 13.4 0 Calma 9 Sudoeste 0 -- -- 96
2019-09-22 08:00:00 13.7 7 Sur 12 Sur 0 -- -- 95
2019-09-22 07:00:00 15 4 Sur 9 Sudoeste 0 -- -- 94
2019-09-22 06:00:00 15.7 5 Sur 16 Sudoeste 0 -- -- 94
2019-09-22 05:00:00 16.7 8 Sudoeste 18 Sudoeste 0 -- -- 96
2019-09-22 04:00:00 17.2 5 Sudoeste 23 Sudoeste 0.2 -- -- 96
2019-09-22 03:00:00 17.4 12 Sudoeste 21 Sudoeste 1.2 -- -- 96
2019-09-22 02:00:00 17.5 12 Sudoeste 31 Sudoeste 0.6 -- -- 96
2019-09-22 01:00:00 17.6 18 Sudoeste 34 Sur 4.8 -- -- 96
2019-09-22 00:00:00 17.5 17 Sur 38 Sur 7.2 -- -- 94
2019-09-21 23:00:00 18.3 19 Sur 36 Sudeste 0.2 -- -- 90
2019-09-21 22:00:00 18.5 17 Sudeste 29 Sudeste 0 -- -- 88
2019-09-21 21:00:00 17.8 10 Sur 27 Sudeste 0.2 -- -- 91
2019-09-21 20:00:00 17.7 13 Sur 25 Sudeste 0 -- -- 90
2019-09-21 19:00:00 17.3 11 Sudeste 23 Sudeste 0.8 -- -- 92
2019-09-21 18:00:00 17.6 12 Sur 26 Sur 0 -- -- 90
2019-09-21 17:00:00 17.1 15 Sur 28 Sur 1 -- -- 90
2019-09-21 16:00:00 16.4 15 Sur 30 Sur 1.2 -- -- 92
2019-09-21 15:00:00 16.5 18 Sur 34 Sur 0.2 -- -- 92
2019-09-21 14:00:00 17.3 14 Sur 32 Sur 0.4 -- -- 90
2019-09-21 13:00:00 17.5 13 Sur 32 Sur 0.4 -- -- 87
2019-09-21 12:00:00 17.2 14 Sur 27 Sudoeste 0.8 -- -- 88
2019-09-21 11:00:00 17.2 10 Sur 23 Sur 0.8 -- -- 91
2019-09-21 10:00:00 16.8 11 Sur 21 Sur 1.4 -- -- 91
2019-09-21 09:00:00 16.7 4 Sudoeste 23 Sur 0.6 -- -- 90
2019-09-21 08:00:00 17.4 14 Sur 22 Sur 0.4 -- -- 83
2019-09-21 07:00:00 18.1 10 Sur 22 Sur 0 -- -- 75
2019-09-21 06:00:00 16.9 6 Sur 10 Sur 0 -- -- 82
2019-09-21 05:00:00 16.9 4 Sudoeste 10 Sur 0.4 -- -- 82
2019-09-21 04:00:00 16.5 3 Sudoeste 9 Sudoeste 0 -- -- 79
2019-09-21 03:00:00 16.4 4 Sudoeste 8 Sur 0 -- -- 79
2019-09-21 02:00:00 16.7 4 Sur 7 Sur 0 -- -- 80
2019-09-21 01:00:00 17.8 4 Sudoeste 10 Sudeste 0 -- -- 75
2019-09-21 00:00:00 18.7 6 Sudeste 10 Sudeste 0 -- -- 73
2019-09-20 23:00:00 19.6 5 Sudoeste 10 Sudoeste 0 -- -- 74
2019-09-20 22:00:00 20.1 5 Sudoeste 9 Sudoeste 0 -- -- 79
2019-09-20 21:00:00 20 3 Sur 6 Sudeste 0 -- -- 81
2019-09-20 20:00:00 20.9 5 Sudoeste 12 Sudoeste 0 -- -- 77
2019-09-20 19:00:00 21.2 5 Sudoeste 31 Sudoeste 0.4 -- -- 72
2019-09-20 18:00:00 21.9 19 Sudoeste 37 Sudoeste 0 -- -- 65
2019-09-20 17:00:00 23.5 11 Sudoeste 42 Sur 0.2 -- -- 63
2019-09-20 16:00:00 28.3 17 Sur 37 Sudeste 0 -- -- 36
2019-09-20 15:00:00 28 20 Sur 40 Sudoeste 0 -- -- 37
2019-09-20 14:00:00 27.3 17 Sur 34 Sur 0 -- -- 40
2019-09-20 13:00:00 26.2 19 Sur 34 Sur 0 -- -- 43
2019-09-20 12:00:00 24.8 13 Sur 33 Sur 0 -- -- 47
2019-09-20 11:00:00 22.5 2 Sudeste 10 Oeste 0 -- -- 59
2019-09-20 10:00:00 19.1 4 Oeste 10 Oeste 0 -- -- 68
2019-09-20 09:00:00 17.3 5 Noroeste 12 Oeste 0 -- -- 77
2019-09-20 08:00:00 17.3 6 Sudoeste 13 Sudoeste 0 -- -- 76
2019-09-20 07:00:00 16.9 5 Sur 10 Sudoeste 0 -- -- 77
2019-09-20 06:00:00 16.8 2 Este 6 Sur 0 -- -- 78
2019-09-20 05:00:00 17.5 6 Sudoeste 8 Sur 0 -- -- 78
2019-09-20 04:00:00 18.3 3 Nordeste 8 Sudoeste 0 -- -- 74
2019-09-20 03:00:00 19 2 Norte 6 Nordeste 0 -- -- 71
2019-09-20 02:00:00 19.1 2 Nordeste 5 Nordeste 0 -- -- 71
2019-09-20 01:00:00 19.1 2 Nordeste 6 Norte 0 -- -- 68
2019-09-20 00:00:00 21.7 4 Sudoeste 8 Sur 0 -- -- 56
2019-09-19 23:00:00 22.6 5 Sudoeste 9 Sur 0 -- -- 55
2019-09-19 22:00:00 24.2 2 Sur 6 Sudoeste 0 -- -- 49
2019-09-19 21:00:00 26.1 3 Sudoeste 6 Sudoeste 0 -- -- 42
2019-09-19 20:00:00 29 7 Sudoeste 17 Sudoeste 0 -- -- 36
2019-09-19 19:00:00 29.8 12 Sudoeste 20 Sur 0 -- -- 34
2019-09-19 18:00:00 30.9 13 Sur 24 Sur 0 -- -- 28
2019-09-19 17:00:00 31.2 12 Sur 25 Sur 0 -- -- 31
2019-09-19 16:00:00 31.2 12 Sur 24 Sudoeste 0 -- -- 31
2019-09-19 15:00:00 30.3 6 Sur 15 Sur 0 -- -- 36
2019-09-19 14:00:00 28.7 8 Sudoeste 15 Sur 0 -- -- 39
2019-09-19 13:00:00 26.9 5 Sudoeste 14 Sudoeste 0 -- -- 43
2019-09-19 12:00:00 25.8 3 Oeste 9 Sudoeste 0 -- -- 46
2019-09-19 11:00:00 23.2 4 Nordeste 9 Nordeste 0 -- -- 52
2019-09-19 10:00:00 20.6 3 Norte 6 Norte 0 -- -- 63
2019-09-19 09:00:00 17.7 2 Este 4 Sudoeste 0 -- -- 78
2019-09-19 08:00:00 16.6 4 Sur 10 Norte 0 -- -- 80
2019-09-19 07:00:00 17.4 5 Nordeste 12 Nordeste 0 -- -- 74
2019-09-19 06:00:00 18.7 7 Nordeste 17 Nordeste 0 -- -- 68
2019-09-19 05:00:00 19.1 10 Nordeste 18 Nordeste 0 -- -- 67
2019-09-19 04:00:00 17.6 7 Nordeste 10 Nordeste 0 -- -- 76
2019-09-19 03:00:00 18.7 3 Sur 9 Norte 0 -- -- 71
2019-09-19 02:00:00 21 7 Nordeste 15 Norte 0 -- -- 59
2019-09-19 01:00:00 22.4 11 Norte 17 Norte 0 -- -- 53
2019-09-19 00:00:00 22 6 Nordeste 10 Nordeste 0 -- -- 58
2019-09-18 23:00:00 23 8 Norte 11 Nordeste 0 -- -- 55
2019-09-18 22:00:00 22.7 6 Norte 9 Nordeste 0 -- -- 58
2019-09-18 21:00:00 25.4 3 Sudoeste 5 Sudoeste 0 -- -- 53
2019-09-18 20:00:00 28.1 3 Oeste 9 Sudoeste 0 -- -- 40
2019-09-18 19:00:00 29.8 5 Oeste 15 Sudoeste 0 -- -- 36
2019-09-18 18:00:00 30 3 Oeste 18 Sudoeste 0 -- -- 35
2019-09-18 17:00:00 29.9 9 Sur 20 Sudoeste 0 -- -- 37
2019-09-18 16:00:00 29.2 5 Oeste 19 Sur 0 -- -- 39
2019-09-18 15:00:00 28.6 4 Sur 15 Sur 0 -- -- 42
2019-09-18 14:00:00 27 4 Oeste 14 Sudoeste 0 -- -- 44
2019-09-18 13:00:00 25.1 5 Sudoeste 11 Sur 0 -- -- 47
2019-09-18 12:00:00 22.8 2 Sudoeste 13 Nordeste 0 -- -- 50
2019-09-18 11:00:00 20 7 Nordeste 13 Nordeste 0 -- -- 65
2019-09-18 10:00:00 18 4 Nordeste 13 Nordeste 0 -- -- 68
2019-09-18 09:00:00 15.5 4 Nordeste 10 Nordeste 0 -- -- 81
2019-09-18 08:00:00 14.7 6 Nordeste 14 Norte 0 -- -- 84
2019-09-18 07:00:00 14.5 6 Norte 10 Norte 0 -- -- 86
2019-09-18 06:00:00 15.9 2 Sudeste 13 Norte 0 -- -- 78
2019-09-18 05:00:00 16.9 8 Norte 20 Norte 0 -- -- 73
2019-09-18 04:00:00 16.9 6 Nordeste 17 Nordeste 0 -- -- 74
2019-09-18 03:00:00 16.9 9 Norte 17 Nordeste 0 -- -- 79
2019-09-18 02:00:00 17.1 10 Nordeste 15 Norte 0 -- -- 80
2019-09-18 01:00:00 17.2 4 Noroeste 9 Noroeste 0 -- -- 81
2019-09-18 00:00:00 18.2 4 Oeste 13 Norte 0 -- -- 74
2019-09-17 23:00:00 19.5 6 Nordeste 21 Este 0 -- -- 66
2019-09-17 22:00:00 20.2 14 Este 39 Este 0 -- -- 60
2019-09-17 21:00:00 18.7 23 Este 42 Este 0.6 -- -- 77